Time;durP1;ratioP1;P1;durP2;ratioP2;P2;SDS_P1;SDS_P2;PMS_P1;PMS_P2;Temp;Humidity;BMP_temperature;BMP_pressure;BME280_temperature;BME280_humidity;BME280_pressure;Samples;Min_cycle;Max_cycle;Signal;HPM_P1;HPM_P2
2023/11/24 00:00:08;;;;;;;2.83;0.85;;;8.20;70.30;;;;;;4954172;28;20110;-92
2023/11/24 00:02:38;;;;;;;3.53;0.70;;;8.20;70.40;;;;;;4991214;28;20142;-91
2023/11/24 00:05:07;;;;;;;2.23;0.60;;;8.20;70.40;;;;;;4959750;28;20047;-91
2023/11/24 00:07:35;;;;;;;2.45;0.60;;;8.20;70.40;;;;;;4988824;28;20153;-91
2023/11/24 00:10:07;;;;;;;2.40;0.80;;;8.20;70.30;;;;;;4946149;28;20043;-91
2023/11/24 00:12:34;;;;;;;2.38;0.70;;;8.20;70.50;;;;;;4953032;28;20043;-91
2023/11/24 00:15:04;;;;;;;2.38;0.50;;;8.20;70.20;;;;;;4947463;28;20046;-92
2023/11/24 00:17:31;;;;;;;1.30;0.40;;;8.20;70.30;;;;;;4964646;28;20407;-91
2023/11/24 00:19:58;;;;;;;1.20;0.40;;;8.20;70.20;;;;;;4959369;28;20062;-90
2023/11/24 00:22:26;;;;;;;2.00;0.40;;;8.20;70.20;;;;;;4963462;28;20046;-90
2023/11/24 00:24:54;;;;;;;1.73;0.50;;;8.20;70.50;;;;;;4939456;28;20053;-91
2023/11/24 00:27:21;;;;;;;2.47;0.52;;;8.20;70.60;;;;;;4959495;28;20106;-90
2023/11/24 00:29:49;;;;;;;2.20;0.33;;;8.10;70.60;;;;;;4959820;28;20511;-91
2023/11/24 00:32:16;;;;;;;1.80;0.40;;;8.10;70.60;;;;;;4964494;28;20046;-91
2023/11/24 00:34:44;;;;;;;2.58;0.60;;;8.20;70.70;;;;;;4959505;28;20038;-91
2023/11/24 00:37:12;;;;;;;1.77;0.47;;;8.20;70.70;;;;;;4959140;28;20043;-91
2023/11/24 00:39:39;;;;;;;1.20;0.40;;;8.30;70.50;;;;;;4961827;28;20507;-91
2023/11/24 00:42:07;;;;;;;1.97;0.40;;;8.30;70.30;;;;;;4965074;28;20065;-90
2023/11/24 00:44:35;;;;;;;2.40;0.50;;;8.50;70.30;;;;;;4955198;28;20071;-91
2023/11/24 00:47:02;;;;;;;1.42;0.50;;;8.50;70.20;;;;;;4967400;28;20139;-90
2023/11/24 00:49:30;;;;;;;3.28;0.45;;;8.50;70.10;;;;;;4944235;28;20524;-91
2023/11/24 00:51:57;;;;;;;2.00;0.60;;;8.50;70.40;;;;;;4948081;28;20046;-91
2023/11/24 00:54:26;;;;;;;2.10;0.57;;;8.50;70.70;;;;;;4957077;28;20043;-91
2023/11/24 00:56:53;;;;;;;2.42;0.50;;;8.50;71.00;;;;;;4986395;28;20464;-91
2023/11/24 00:59:21;;;;;;;2.28;0.50;;;8.50;71.10;;;;;;4958902;28;20571;-91
2023/11/24 01:01:48;;;;;;;1.65;0.60;;;8.50;71.30;;;;;;4979071;28;20129;-91
2023/11/24 01:04:16;;;;;;;1.50;0.57;;;8.50;71.30;;;;;;4989690;28;20409;-91
2023/11/24 01:06:44;;;;;;;2.27;0.50;;;8.50;71.80;;;;;;4948491;28;20489;-90
2023/11/24 01:09:11;;;;;;;2.28;0.50;;;8.50;72.40;;;;;;4958338;28;20077;-90
2023/11/24 01:11:38;;;;;;;2.15;0.60;;;8.40;72.20;;;;;;4966126;28;20133;-91
2023/11/24 01:14:05;;;;;;;2.10;0.63;;;8.30;72.90;;;;;;4949244;28;20067;-90
2023/11/24 01:16:32;;;;;;;1.83;0.50;;;8.40;72.60;;;;;;4964063;28;20057;-91
2023/11/24 01:19:00;;;;;;;2.33;0.63;;;8.30;72.40;;;;;;4955610;28;20126;-91
2023/11/24 01:21:27;;;;;;;3.40;0.75;;;8.30;72.60;;;;;;4972554;28;20129;-90
2023/11/24 01:23:59;;;;;;;2.90;0.60;;;8.40;72.60;;;;;;4958901;28;20077;-90
2023/11/24 01:26:26;;;;;;;1.50;0.57;;;8.30;72.40;;;;;;4957211;28;20106;-90
2023/11/24 01:28:54;;;;;;;2.28;0.40;;;8.30;72.30;;;;;;4990929;28;20577;-90
2023/11/24 01:31:21;;;;;;;2.10;0.60;;;8.20;72.20;;;;;;4958748;28;20101;-90
2023/11/24 01:33:49;;;;;;;2.53;0.50;;;8.20;72.40;;;;;;4947290;28;20058;-90
2023/11/24 01:36:16;;;;;;;2.22;0.50;;;8.30;72.40;;;;;;4967416;28;20043;-90
2023/11/24 01:38:43;;;;;;;2.05;0.65;;;8.20;73.00;;;;;;4981472;28;20047;-90
2023/11/24 01:41:10;;;;;;;1.77;0.55;;;8.10;73.80;;;;;;4965766;28;20097;-90
2023/11/24 01:43:37;;;;;;;1.37;0.43;;;8.10;74.60;;;;;;4986747;28;20041;-90
2023/11/24 01:46:05;;;;;;;2.88;0.60;;;8.10;74.00;;;;;;4958072;28;20460;-91
2023/11/24 01:48:32;;;;;;;1.90;0.65;;;8.00;74.10;;;;;;4959145;28;20055;-91
2023/11/24 01:51:00;;;;;;;3.22;0.65;;;8.10;74.50;;;;;;4951767;29;20494;-90
2023/11/24 01:53:27;;;;;;;2.80;0.60;;;8.00;75.80;;;;;;4955078;29;20525;-90
2023/11/24 01:55:54;;;;;;;3.63;0.80;;;8.00;75.70;;;;;;4939186;29;20067;-90
2023/11/24 01:58:21;;;;;;;2.97;0.70;;;8.00;75.80;;;;;;4970916;28;20051;-91
2023/11/24 02:00:49;;;;;;;2.90;0.93;;;8.00;75.30;;;;;;4974742;28;20039;-90
2023/11/24 02:03:16;;;;;;;3.15;0.70;;;8.00;75.80;;;;;;4998540;28;20134;-90
2023/11/24 02:05:43;;;;;;;7.07;1.42;;;8.00;75.90;;;;;;4971517;28;20040;-91
2023/11/24 02:08:11;;;;;;;3.40;1.00;;;8.00;75.70;;;;;;4955537;29;20039;-91
2023/11/24 02:10:38;;;;;;;3.05;0.82;;;8.00;76.70;;;;;;4939334;29;20467;-91
2023/11/24 02:13:05;;;;;;;4.00;0.93;;;7.90;77.00;;;;;;4987922;28;20058;-91
2023/11/24 02:15:32;;;;;;;4.50;0.90;;;7.90;77.00;;;;;;4974380;28;20106;-90
2023/11/24 02:17:59;;;;;;;2.45;0.93;;;7.80;77.50;;;;;;4974522;28;20075;-90
2023/11/24 02:20:27;;;;;;;2.83;0.80;;;7.80;77.80;;;;;;4958469;29;20054;-90
2023/11/24 02:22:54;;;;;;;3.08;0.77;;;7.80;77.40;;;;;;4974141;28;20050;-90
2023/11/24 02:25:21;;;;;;;2.92;0.88;;;7.70;77.60;;;;;;4974320;28;20043;-91
2023/11/24 02:27:49;;;;;;;3.67;0.80;;;7.70;77.80;;;;;;4958361;29;20493;-90
2023/11/24 02:30:16;;;;;;;5.60;0.77;;;7.70;77.70;;;;;;4957366;28;20566;-90
2023/11/24 02:32:44;;;;;;;2.83;0.97;;;7.80;77.70;;;;;;4987317;28;20055;-89
2023/11/24 02:35:12;;;;;;;3.00;0.60;;;7.70;78.20;;;;;;4987567;28;20043;-90
2023/11/24 02:37:39;;;;;;;3.05;1.00;;;7.70;78.20;;;;;;4958102;28;20058;-90
2023/11/24 02:40:08;;;;;;;2.88;0.80;;;7.70;78.70;;;;;;4973676;28;20125;-91
2023/11/24 02:42:35;;;;;;;4.55;0.90;;;7.70;78.50;;;;;;4973989;28;20564;-91
2023/11/24 02:45:03;;;;;;;2.87;0.60;;;7.70;78.80;;;;;;4974023;28;20564;-90
2023/11/24 02:47:32;;;;;;;3.00;0.77;;;7.70;79.10;;;;;;4957539;28;20047;-92
2023/11/24 02:49:59;;;;;;;1.35;0.50;;;7.70;79.70;;;;;;4958014;29;20521;-91
2023/11/24 02:52:26;;;;;;;3.03;0.73;;;7.50;79.70;;;;;;4974062;28;20098;-91
2023/11/24 02:54:54;;;;;;;3.17;0.73;;;7.50;79.90;;;;;;4973792;28;20051;-91
2023/11/24 02:57:21;;;;;;;4.23;1.03;;;7.60;81.00;;;;;;4973537;28;20070;-91
2023/11/24 02:59:48;;;;;;;4.07;1.27;;;7.50;80.90;;;;;;4990191;28;20142;-91
2023/11/24 03:02:16;;;;;;;3.78;0.95;;;7.50;81.30;;;;;;4973830;28;20102;-91
2023/11/24 03:04:46;;;;;;;3.05;0.80;;;7.40;81.20;;;;;;4957783;28;20049;-92
2023/11/24 03:07:17;;;;;;;2.28;0.60;;;7.20;80.60;;;;;;4955157;28;20044;-90
2023/11/24 03:09:45;;;;;;;2.93;0.80;;;7.10;80.30;;;;;;4973573;28;20043;-90
2023/11/24 03:12:12;;;;;;;3.70;0.65;;;7.10;80.70;;;;;;4990173;28;20055;-90
2023/11/24 03:14:42;;;;;;;3.85;0.80;;;7.10;80.50;;;;;;4973572;28;20039;-91
2023/11/24 03:17:13;;;;;;;2.22;0.50;;;7.10;80.30;;;;;;4954602;28;20048;-91
2023/11/24 03:19:40;;;;;;;1.77;0.50;;;7.00;79.80;;;;;;4954147;29;20410;-90
2023/11/24 03:22:07;;;;;;;2.00;0.60;;;7.00;79.90;;;;;;4957842;28;20049;-91
2023/11/24 03:24:37;;;;;;;1.98;0.50;;;7.00;80.10;;;;;;4989734;28;20048;-91
2023/11/24 03:27:04;;;;;;;2.45;0.68;;;7.00;79.20;;;;;;4989696;28;20043;-91
2023/11/24 03:29:33;;;;;;;3.05;0.50;;;7.20;79.40;;;;;;4973404;28;20074;-91
2023/11/24 03:32:01;;;;;;;2.00;0.40;;;7.20;78.80;;;;;;4973304;28;20501;-90
2023/11/24 03:34:29;;;;;;;3.53;0.60;;;7.00;78.10;;;;;;4972677;28;20058;-90
2023/11/24 03:36:57;;;;;;;3.63;0.70;;;7.00;78.50;;;;;;4973260;28;20146;-90
2023/11/24 03:39:24;;;;;;;3.85;0.70;;;7.00;78.70;;;;;;4972773;28;20131;-90
2023/11/24 03:41:51;;;;;;;2.97;0.40;;;7.00;79.00;;;;;;4973548;28;20039;-90
2023/11/24 03:44:19;;;;;;;1.58;0.40;;;6.90;79.20;;;;;;4955214;28;20095;-90
2023/11/24 03:46:46;;;;;;;2.33;0.40;;;6.90;79.30;;;;;;4986079;28;20112;-90
2023/11/24 03:49:13;;;;;;;1.98;0.40;;;6.90;79.30;;;;;;4956841;29;20133;-91
2023/11/24 03:51:41;;;;;;;1.95;0.20;;;6.80;78.30;;;;;;4955902;28;20047;-90
2023/11/24 03:54:08;;;;;;;0.95;0.20;;;6.70;78.00;;;;;;4960172;28;20101;-91
2023/11/24 03:56:35;;;;;;;2.47;0.30;;;6.60;78.00;;;;;;4959807;28;20078;-90
2023/11/24 03:59:05;;;;;;;3.63;0.30;;;6.50;77.50;;;;;;4976115;28;20070;-91
2023/11/24 04:01:33;;;;;;;1.98;0.30;;;6.50;76.50;;;;;;4952042;28;20496;-90
2023/11/24 04:04:01;;;;;;;2.15;0.30;;;6.40;74.80;;;;;;4960274;28;20081;-91
2023/11/24 04:06:29;;;;;;;1.95;0.20;;;6.40;74.50;;;;;;4992178;28;20047;-90
2023/11/24 04:08:56;;;;;;;2.40;0.30;;;6.30;75.10;;;;;;4956260;28;20138;-90
2023/11/24 04:11:24;;;;;;;1.10;0.40;;;6.30;75.90;;;;;;4980544;28;20497;-90
2023/11/24 04:13:53;;;;;;;2.75;0.30;;;6.30;76.20;;;;;;4992370;28;20050;-90
2023/11/24 04:16:20;;;;;;;2.70;0.73;;;6.40;76.60;;;;;;4959436;28;20043;-89
2023/11/24 04:18:48;;;;;;;1.15;0.28;;;6.40;76.90;;;;;;4960053;28;20070;-91
2023/11/24 04:21:16;;;;;;;1.23;0.30;;;6.40;76.70;;;;;;4979585;28;20477;-91
2023/11/24 04:23:43;;;;;;;1.60;0.20;;;6.40;76.60;;;;;;4959516;28;20392;-90
2023/11/24 04:26:11;;;;;;;4.22;0.40;;;6.40;77.30;;;;;;4954423;28;20047;-91
2023/11/24 04:28:38;;;;;;;1.55;0.35;;;6.40;77.60;;;;;;4959474;28;20081;-91
2023/11/24 04:31:05;;;;;;;1.48;0.30;;;6.40;77.60;;;;;;4959621;28;20069;-91
2023/11/24 04:33:32;;;;;;;2.22;0.30;;;6.30;77.90;;;;;;4958187;28;20059;-90
2023/11/24 04:36:00;;;;;;;1.73;0.30;;;6.20;77.90;;;;;;4939799;29;20067;-91
2023/11/24 04:38:27;;;;;;;1.50;0.20;;;6.20;78.30;;;;;;4940635;29;20055;-91
2023/11/24 04:40:55;;;;;;;1.63;0.40;;;6.20;78.30;;;;;;4968308;28;20049;-90
2023/11/24 04:43:24;;;;;;;4.38;0.50;;;6.20;78.10;;;;;;4982923;28;20504;-90
2023/11/24 04:45:51;;;;;;;2.38;0.20;;;6.20;78.30;;;;;;4984867;28;20043;-90
2023/11/24 04:48:19;;;;;;;2.30;0.33;;;6.20;77.40;;;;;;4969292;28;20409;-90
2023/11/24 04:50:46;;;;;;;2.25;0.30;;;6.20;77.50;;;;;;4988777;28;20047;-90
2023/11/24 04:53:13;;;;;;;3.13;0.30;;;6.30;76.50;;;;;;4959215;28;20182;-90
2023/11/24 04:55:40;;;;;;;2.17;0.30;;;6.30;77.00;;;;;;4946472;28;20047;-90
2023/11/24 04:58:07;;;;;;;1.88;0.30;;;6.40;76.90;;;;;;4959491;28;20078;-91
2023/11/24 05:00:35;;;;;;;1.47;0.40;;;6.40;77.20;;;;;;4988502;28;20046;-90
2023/11/24 05:03:02;;;;;;;1.67;0.30;;;6.50;76.70;;;;;;4949735;28;20488;-90
2023/11/24 05:05:32;;;;;;;1.70;0.50;;;6.60;76.50;;;;;;4958973;28;20045;-90
2023/11/24 05:07:59;;;;;;;1.75;0.30;;;6.70;76.00;;;;;;4991075;28;20134;-90
2023/11/24 05:10:26;;;;;;;3.53;0.40;;;6.70;75.60;;;;;;4959112;28;20043;-90
2023/11/24 05:12:54;;;;;;;1.87;0.40;;;6.60;76.00;;;;;;4955725;29;20094;-90
2023/11/24 05:15:21;;;;;;;1.90;0.40;;;6.60;76.40;;;;;;4977202;28;20047;-89
2023/11/24 05:17:48;;;;;;;3.38;0.60;;;6.60;76.30;;;;;;4953081;28;20068;-90
2023/11/24 05:20:17;;;;;;;1.45;0.45;;;6.70;76.60;;;;;;4954632;28;20043;-90
2023/11/24 05:22:45;;;;;;;3.10;0.55;;;6.70;75.50;;;;;;4983771;28;20071;-90
2023/11/24 05:25:12;;;;;;;4.30;0.50;;;6.70;75.70;;;;;;4971359;28;20061;-90
2023/11/24 05:27:39;;;;;;;3.17;0.40;;;6.70;75.60;;;;;;4958540;28;20043;-90
2023/11/24 05:30:08;;;;;;;1.20;0.30;;;6.80;75.40;;;;;;4987847;28;20051;-91
2023/11/24 05:32:35;;;;;;;2.25;0.47;;;6.90;75.50;;;;;;4964814;28;20105;-90
2023/11/24 05:35:05;;;;;;;4.90;1.20;;;7.00;75.20;;;;;;4958560;28;20050;-90
2023/11/24 05:37:32;;;;;;;2.30;0.60;;;6.90;74.90;;;;;;4968687;28;20113;-90
2023/11/24 05:40:05;;;;;;;4.20;1.75;;;6.90;74.90;;;;;;4958211;28;20531;-93
2023/11/24 05:42:33;;;;;;;3.33;0.90;;;6.90;74.40;;;;;;4958286;28;20055;-89
2023/11/24 05:45:01;;;;;;;4.20;2.08;;;6.80;74.60;;;;;;4958460;28;20039;-90
2023/11/24 05:47:30;;;;;;;3.97;1.10;;;6.70;75.30;;;;;;4958777;28;20051;-90
2023/11/24 05:50:35;;;;;;;3.60;1.43;;;6.70;74.90;;;;;;4962104;28;20050;-90
2023/11/24 05:53:03;;;;;;;2.58;0.70;;;6.70;74.60;;;;;;4961672;28;20137;-91
2023/11/24 05:55:30;;;;;;;1.95;0.63;;;6.70;75.00;;;;;;4996270;28;20051;-91
2023/11/24 05:57:57;;;;;;;3.60;0.70;;;6.60;74.90;;;;;;4953074;28;20508;-89
2023/11/24 06:00:25;;;;;;;3.95;0.50;;;6.70;75.00;;;;;;4960752;28;20047;-90
2023/11/24 06:02:52;;;;;;;4.90;0.80;;;6.70;74.40;;;;;;4959092;28;20043;-89
2023/11/24 06:05:19;;;;;;;4.47;0.88;;;6.70;74.80;;;;;;4983246;28;20039;-90
2023/11/24 06:07:46;;;;;;;4.43;1.98;;;6.70;75.10;;;;;;4950744;28;20043;-95
2023/11/24 06:10:19;;;;;;;2.17;0.60;;;;;;;;;;4976963;28;20050;-90
2023/11/24 06:12:46;;;;;;;4.15;0.95;;;6.60;75.00;;;;;;4961198;28;20054;-89
2023/11/24 06:15:13;;;;;;;1.90;0.40;;;6.70;75.40;;;;;;4961686;28;20059;-90
2023/11/24 06:17:40;;;;;;;1.80;0.30;;;6.60;75.00;;;;;;4985761;28;20386;-90
2023/11/24 06:20:10;;;;;;;0.90;0.28;;;6.60;75.10;;;;;;4954545;28;20053;-90
2023/11/24 06:22:37;;;;;;;2.38;0.40;;;6.50;74.90;;;;;;4974498;28;20416;-90
2023/11/24 06:25:05;;;;;;;3.15;0.50;;;6.50;75.50;;;;;;4958172;29;20043;-90
2023/11/24 06:27:32;;;;;;;1.77;0.50;;;6.50;75.50;;;;;;4961477;28;20232;-90
2023/11/24 06:29:59;;;;;;;2.42;0.50;;;6.50;75.10;;;;;;4961487;28;20133;-91
2023/11/24 06:32:26;;;;;;;3.40;0.63;;;6.50;75.30;;;;;;4961530;28;20448;-91
2023/11/24 06:34:53;;;;;;;6.35;0.45;;;6.50;75.60;;;;;;4961701;28;20049;-92
2023/11/24 06:37:20;;;;;;;1.88;0.43;;;6.50;75.60;;;;;;4961814;28;20047;-91
2023/11/24 06:39:47;;;;;;;2.43;0.40;;;6.50;76.10;;;;;;4961264;28;20049;-89
2023/11/24 06:42:14;;;;;;;2.58;0.40;;;6.40;76.20;;;;;;4977473;28;20101;-88
2023/11/24 06:44:42;;;;;;;2.67;0.50;;;6.30;76.50;;;;;;4944066;28;20042;-92
2023/11/24 06:47:09;;;;;;;6.20;1.80;;;6.30;76.40;;;;;;4961449;28;20445;-89
2023/11/24 06:49:36;;;;;;;7.63;1.13;;;6.30;76.80;;;;;;4947575;28;20238;-91
2023/11/24 06:52:06;;;;;;;4.53;0.80;;;6.30;76.90;;;;;;4961865;28;20035;-91
2023/11/24 06:54:34;;;;;;;3.05;0.40;;;6.30;76.50;;;;;;4951422;28;20425;-91
2023/11/24 06:57:01;;;;;;;2.22;0.55;;;6.20;76.50;;;;;;4956052;28;20051;-91
2023/11/24 06:59:29;;;;;;;3.10;0.75;;;6.10;76.60;;;;;;4993098;28;20042;-91
2023/11/24 07:01:59;;;;;;;2.70;0.40;;;6.10;77.10;;;;;;4961139;28;20049;-92
2023/11/24 07:04:26;;;;;;;2.00;0.40;;;6.10;77.20;;;;;;4961072;28;20043;-92
2023/11/24 07:06:53;;;;;;;2.92;0.38;;;6.10;77.00;;;;;;4977087;28;20043;-92
2023/11/24 07:09:21;;;;;;;2.92;0.50;;;6.10;76.80;;;;;;4961213;28;20052;-92
2023/11/24 07:11:48;;;;;;;3.88;0.60;;;6.20;76.40;;;;;;4961185;28;20055;-92
2023/11/24 07:14:15;;;;;;;4.88;0.70;;;6.20;76.40;;;;;;4946569;28;20078;-92
2023/11/24 07:16:43;;;;;;;4.70;0.80;;;6.20;75.90;;;;;;4961248;28;20134;-92
2023/11/24 07:19:10;;;;;;;4.63;0.60;;;6.20;75.10;;;;;;4961087;28;20162;-92
2023/11/24 07:21:38;;;;;;;1.90;0.40;;;6.20;75.30;;;;;;4945176;28;20061;-92
2023/11/24 07:24:06;;;;;;;4.28;0.70;;;6.10;74.20;;;;;;4960874;28;20069;-92
2023/11/24 07:26:33;;;;;;;5.60;0.60;;;6.20;74.90;;;;;;4961237;28;20500;-92
2023/11/24 07:29:02;;;;;;;6.07;0.80;;;6.20;74.00;;;;;;4960665;28;20568;-91
2023/11/24 07:31:29;;;;;;;7.65;1.80;;;6.20;74.60;;;;;;4954662;28;20137;-91
2023/11/24 07:33:56;;;;;;;9.48;3.00;;;6.20;74.00;;;;;;4948743;28;20055;-91
2023/11/24 07:36:23;;;;;;;8.25;1.10;;;6.20;72.70;;;;;;4976851;28;20088;-92
2023/11/24 07:38:50;;;;;;;3.70;0.93;;;6.20;70.90;;;;;;4960756;28;20138;-91
2023/11/24 07:41:18;;;;;;;7.23;0.60;;;6.10;68.90;;;;;;4949534;28;20043;-91
2023/11/24 07:43:45;;;;;;;2.42;0.47;;;6.10;68.40;;;;;;4986004;28;20497;-92
2023/11/24 07:46:12;;;;;;;4.80;1.15;;;6.00;67.40;;;;;;4960074;28;20043;-91
2023/11/24 07:48:43;;;;;;;4.90;0.73;;;6.00;67.50;;;;;;4960459;28;20047;-92
2023/11/24 07:51:11;;;;;;;7.88;1.60;;;6.00;67.60;;;;;;4960355;28;20047;-92
2023/11/24 07:53:38;;;;;;;4.53;0.73;;;6.00;67.70;;;;;;4956672;29;20505;-91
2023/11/24 07:56:08;;;;;;;9.95;1.02;;;6.00;67.80;;;;;;4968934;28;20054;-91
2023/11/24 07:58:35;;;;;;;7.13;1.30;;;6.00;67.00;;;;;;4960347;28;20093;-91
2023/11/24 08:01:05;;;;;;;6.18;0.98;;;6.00;67.50;;;;;;4970683;28;20373;-92
2023/11/24 08:03:35;;;;;;;7.47;1.38;;;6.10;67.40;;;;;;4988592;28;20110;-91
2023/11/24 08:06:07;;;;;;;7.93;2.13;;;6.20;67.30;;;;;;4977471;28;20571;-91
2023/11/24 08:08:35;;;;;;;10.85;1.33;;;6.30;67.10;;;;;;4956855;28;20047;-92
2023/11/24 08:11:05;;;;;;;6.32;1.20;;;6.30;66.10;;;;;;4959551;28;20555;-92
2023/11/24 08:13:49;;;;;;;4.88;1.00;;;6.30;66.10;;;;;;4959750;28;20097;-92
2023/11/24 08:16:19;;;;;;;8.65;1.05;;;6.40;66.00;;;;;;4960484;28;20070;-92
2023/11/24 08:18:47;;;;;;;5.37;0.93;;;6.40;65.30;;;;;;4992412;28;20046;-92
2023/11/24 08:21:17;;;;;;;7.18;1.13;;;6.40;65.90;;;;;;4960329;28;20055;-92
2023/11/24 08:23:45;;;;;;;10.50;3.67;;;6.50;66.50;;;;;;4959673;28;20062;-92
2023/11/24 08:26:21;;;;;;;8.98;2.78;;;6.50;66.40;;;;;;4959753;28;20043;-92
2023/11/24 08:28:48;;;;;;;9.02;2.35;;;6.50;67.50;;;;;;4965544;28;20058;-92
2023/11/24 08:31:20;;;;;;;7.80;2.03;;;6.40;69.70;;;;;;4992034;28;20053;-92
2023/11/24 08:33:48;;;;;;;7.68;1.38;;;6.30;71.00;;;;;;4992052;28;20059;-92
2023/11/24 08:36:16;;;;;;;9.48;3.15;;;6.30;71.30;;;;;;4959735;28;20050;-92
2023/11/24 08:38:43;;;;;;;8.20;2.72;;;6.30;72.00;;;;;;4956106;29;20051;-92
2023/11/24 08:41:15;;;;;;;4.32;0.90;;;6.40;72.40;;;;;;4956234;28;20067;-93
2023/11/24 08:44:01;;;;;;;8.53;2.43;;;6.40;72.80;;;;;;4940341;29;20051;-92
2023/11/24 08:46:30;;;;;;;6.57;2.38;;;6.30;73.20;;;;;;4956843;28;20048;-93
2023/11/24 08:48:58;;;;;;;3.85;1.25;;;6.20;73.90;;;;;;4955813;29;20047;-92
2023/11/24 08:51:26;;;;;;;4.22;0.82;;;6.10;74.00;;;;;;4956304;28;20469;-92
2023/11/24 08:53:53;;;;;;;3.50;0.57;;;5.90;74.70;;;;;;4966945;28;20057;-92
2023/11/24 08:56:21;;;;;;;4.53;0.93;;;5.90;75.30;;;;;;4991006;28;20137;-92
2023/11/24 08:58:49;;;;;;;3.90;0.63;;;6.00;75.40;;;;;;4959682;28;20049;-92
2023/11/24 09:01:16;;;;;;;2.78;0.70;;;6.00;75.80;;;;;;4959114;28;20065;-92
2023/11/24 09:03:44;;;;;;;5.32;0.55;;;6.00;75.30;;;;;;4956479;29;20557;-92
2023/11/24 09:06:11;;;;;;;2.38;0.70;;;5.90;75.10;;;;;;4976897;28;20042;-92
2023/11/24 09:08:39;;;;;;;2.23;0.50;;;5.80;74.90;;;;;;4965721;28;20047;-92
2023/11/24 09:11:07;;;;;;;4.13;1.10;;;5.70;75.30;;;;;;4966445;28;20513;-92
2023/11/24 09:13:34;;;;;;;6.20;1.58;;;5.70;75.30;;;;;;4940313;29;20063;-92
2023/11/24 09:16:02;;;;;;;4.25;0.90;;;5.80;75.40;;;;;;4955836;28;20054;-92
2023/11/24 09:18:29;;;;;;;6.13;1.05;;;5.90;74.90;;;;;;4955962;28;20069;-91
2023/11/24 09:20:57;;;;;;;3.90;0.60;;;5.90;74.40;;;;;;4956755;29;20058;-92
2023/11/24 09:23:24;;;;;;;5.85;0.88;;;5.90;74.20;;;;;;4958794;28;20520;-93
2023/11/24 09:25:51;;;;;;;5.72;1.10;;;5.90;74.20;;;;;;4962844;28;20043;-92
2023/11/24 09:28:20;;;;;;;6.95;1.25;;;6.00;74.20;;;;;;4962839;28;20078;-92
2023/11/24 09:30:47;;;;;;;6.45;2.20;;;6.00;73.70;;;;;;4963250;28;20054;-92
2023/11/24 09:33:17;;;;;;;13.33;2.53;;;6.10;74.10;;;;;;4963105;28;20412;-92
2023/11/24 09:35:44;;;;;;;6.93;1.90;;;6.10;74.10;;;;;;4962580;28;20078;-92
2023/11/24 09:38:11;;;;;;;11.00;2.90;;;6.20;74.60;;;;;;4963159;28;20093;-92
2023/11/24 09:40:39;;;;;;;11.02;1.70;;;6.40;74.30;;;;;;4962789;28;20094;-93
2023/11/24 09:43:08;;;;;;;6.10;1.30;;;6.40;74.00;;;;;;4965764;28;20112;-92
2023/11/24 09:45:35;;;;;;;14.63;8.47;;;6.40;73.90;;;;;;4949297;28;20042;-92
2023/11/24 09:48:06;;;;;;;37.72;17.73;;;6.40;73.90;;;;;;4948101;28;20130;-91
2023/11/24 09:50:35;;;;;;;12.18;2.40;;;6.30;73.90;;;;;;4976060;28;20046;-92
2023/11/24 09:53:04;;;;;;;6.90;1.48;;;6.40;73.40;;;;;;4980727;28;20548;-91
2023/11/24 09:55:32;;;;;;;7.55;1.33;;;6.30;73.80;;;;;;4973190;28;20097;-91
2023/11/24 09:57:59;;;;;;;5.70;1.00;;;6.20;74.50;;;;;;4971318;28;20039;-92
2023/11/24 10:00:26;;;;;;;5.88;1.30;;;6.20;74.30;;;;;;4977576;28;20130;-91
2023/11/24 10:02:58;;;;;;;7.72;1.80;;;6.30;74.90;;;;;;4973800;28;20055;-90
2023/11/24 10:05:26;;;;;;;6.07;1.67;;;6.30;75.00;;;;;;4962606;28;20414;-91
2023/11/24 10:07:54;;;;;;;7.25;1.20;;;6.30;75.30;;;;;;4969679;28;20068;-91
2023/11/24 10:10:23;;;;;;;6.90;1.30;;;6.30;76.30;;;;;;4985309;28;20090;-92
2023/11/24 10:13:01;;;;;;;3.95;0.80;;;6.40;76.10;;;;;;4967479;28;20049;-92
2023/11/24 10:15:31;;;;;;;5.38;0.75;;;6.50;74.80;;;;;;4978420;28;20110;-91
2023/11/24 10:17:58;;;;;;;4.35;0.90;;;6.30;73.40;;;;;;4994134;28;20043;-92
2023/11/24 10:20:28;;;;;;;3.80;0.65;;;6.30;74.40;;;;;;4966896;28;20053;-92
2023/11/24 10:22:58;;;;;;;4.07;0.70;;;6.30;73.30;;;;;;4958815;28;20501;-92
2023/11/24 10:25:28;;;;;;;7.53;0.80;;;6.20;73.40;;;;;;4966080;28;20484;-91
2023/11/24 10:28:00;;;;;;;6.30;0.70;;;6.10;73.10;;;;;;4989933;28;20038;-91
2023/11/24 10:30:27;;;;;;;9.68;1.98;;;6.00;73.40;;;;;;4961823;28;20047;-91
2023/11/24 10:32:56;;;;;;;5.70;1.60;;;5.90;74.30;;;;;;4972420;28;20656;-91
2023/11/24 10:35:24;;;;;;;7.77;1.37;;;5.90;74.90;;;;;;4960896;28;20500;-91
2023/11/24 10:37:53;;;;;;;5.05;0.90;;;5.90;74.50;;;;;;4959751;28;20051;-91
2023/11/24 10:40:22;;;;;;;6.07;1.33;;;5.80;74.40;;;;;;4969286;28;20042;-91
2023/11/24 10:42:54;;;;;;;6.82;1.52;;;5.80;75.20;;;;;;4993982;28;20494;-91
2023/11/24 10:45:22;;;;;;;6.90;0.98;;;5.90;75.40;;;;;;4961589;28;20559;-91
2023/11/24 10:48:19;;;;;;;4.70;0.60;;;5.90;75.10;;;;;;4942666;29;20572;-91
2023/11/24 10:51:29;;;;;;;4.60;0.80;;;5.90;75.00;;;;;;4950330;28;20047;-91
2023/11/24 10:53:59;;;;;;;3.08;0.70;;;5.90;74.80;;;;;;4970020;28;20059;-91
2023/11/24 10:56:31;;;;;;;5.70;0.85;;;5.80;75.30;;;;;;4938829;29;20486;-91
2023/11/24 10:59:01;;;;;;;5.50;1.33;;;5.80;75.50;;;;;;4939043;29;20043;-91
2023/11/24 11:01:28;;;;;;;4.67;0.50;;;5.80;75.20;;;;;;4925265;29;20439;-91
2023/11/24 11:03:59;;;;;;;3.22;0.60;;;5.80;74.30;;;;;;4954192;29;20044;-91
2023/11/24 11:07:01;;;;;;;3.75;0.65;;;5.80;73.70;;;;;;4938625;29;20044;-91
2023/11/24 11:09:42;;;;;;;2.60;0.60;;;5.80;73.90;;;;;;4938526;29;20091;-91
2023/11/24 11:12:39;;;;;;;4.72;0.90;;;5.90;74.70;;;;;;4938829;29;20139;-91
2023/11/24 11:15:13;;;;;;;3.07;0.63;;;6.00;74.00;;;;;;4938559;29;20075;-91
2023/11/24 11:17:41;;;;;;;7.97;1.42;;;6.20;74.50;;;;;;4941633;29;20540;-91
2023/11/24 11:20:12;;;;;;;3.10;0.82;;;6.50;74.60;;;;;;4954131;29;20051;-91
2023/11/24 11:22:43;;;;;;;2.70;0.55;;;6.70;73.30;;;;;;4954063;29;20047;-91
2023/11/24 11:25:17;;;;;;;8.30;1.17;;;6.90;73.20;;;;;;4938477;29;20039;-90
2023/11/24 11:27:47;;;;;;;3.07;0.77;;;6.80;71.70;;;;;;4922241;29;20703;-92
2023/11/24 11:30:19;;;;;;;5.68;1.02;;;6.70;71.60;;;;;;4954192;29;20051;-91
2023/11/24 11:33:00;;;;;;;8.57;1.25;;;6.50;72.60;;;;;;4954483;28;20048;-91
2023/11/24 11:35:28;;;;;;;5.88;0.70;;;6.40;72.60;;;;;;4953658;29;20110;-91
2023/11/24 11:37:59;;;;;;;5.93;0.93;;;6.50;73.00;;;;;;4954161;28;20048;-92
2023/11/24 11:40:26;;;;;;;9.93;1.23;;;6.50;73.10;;;;;;4937891;29;20044;-93
2023/11/24 11:42:58;;;;;;;3.50;0.82;;;6.50;72.90;;;;;;4937659;29;20036;-91
2023/11/24 11:45:29;;;;;;;8.40;2.25;;;6.50;72.70;;;;;;4937266;29;20047;-92
2023/11/24 11:47:59;;;;;;;6.78;1.27;;;6.50;72.80;;;;;;4946703;29;20052;-92
2023/11/24 11:50:27;;;;;;;6.95;1.00;;;6.50;73.00;;;;;;4973083;28;20129;-92
2023/11/24 11:53:00;;;;;;;5.33;1.27;;;6.50;73.10;;;;;;4945818;28;20134;-91
2023/11/24 11:55:30;;;;;;;7.55;1.38;;;6.30;73.10;;;;;;4956059;28;20047;-91
2023/11/24 11:58:00;;;;;;;5.53;1.27;;;6.20;73.80;;;;;;4972647;28;20050;-92
2023/11/24 12:00:32;;;;;;;6.40;1.83;;;6.20;74.30;;;;;;4971200;28;20051;-91
2023/11/24 12:02:59;;;;;;;7.65;1.52;;;6.10;74.30;;;;;;4956540;28;20486;-91
2023/11/24 12:05:27;;;;;;;11.57;3.20;;;6.20;73.80;;;;;;4972065;28;20075;-91
2023/11/24 12:07:57;;;;;;;8.85;2.40;;;6.10;74.00;;;;;;4950797;28;20066;-91
2023/11/24 12:10:29;;;;;;;9.18;2.10;;;6.10;74.30;;;;;;4954362;29;20055;-91
2023/11/24 12:13:03;;;;;;;4.72;1.10;;;6.20;74.00;;;;;;4988361;28;20043;-91
2023/11/24 12:15:31;;;;;;;3.85;0.65;;;6.10;70.40;;;;;;4971889;28;20055;-91
2023/11/24 12:17:58;;;;;;;5.30;0.60;;;6.00;70.50;;;;;;4972118;28;20908;-91
2023/11/24 12:20:27;;;;;;;11.55;6.07;;;5.80;71.40;;;;;;4972617;28;20059;-91
2023/11/24 12:22:55;;;;;;;4.88;1.50;;;5.70;73.60;;;;;;4953365;28;20051;-91
2023/11/24 12:25:22;;;;;;;6.10;0.73;;;5.50;74.10;;;;;;4988175;28;20413;-90
2023/11/24 12:27:49;;;;;;;4.13;0.60;;;5.20;75.20;;;;;;4960152;28;20043;-89
2023/11/24 12:30:19;;;;;;;3.07;0.43;;;4.80;76.50;;;;;;4940920;29;20343;-89
2023/11/24 12:32:46;;;;;;;4.43;0.70;;;4.60;76.50;;;;;;4971453;28;20465;-88
2023/11/24 12:35:14;;;;;;;2.38;0.50;;;4.20;77.00;;;;;;4956569;28;20047;-89
2023/11/24 12:37:46;;;;;;;4.03;0.63;;;3.90;77.60;;;;;;4971441;28;20047;-89
2023/11/24 12:40:16;;;;;;;10.32;2.35;;;3.70;78.10;;;;;;4971404;28;20515;-89
2023/11/24 12:42:46;;;;;;;12.43;3.00;;;3.50;79.00;;;;;;4971479;28;20073;-89
2023/11/24 12:45:13;;;;;;;4.57;0.90;;;3.40;79.50;;;;;;4972064;28;20134;-89
2023/11/24 12:47:40;;;;;;;5.20;1.60;;;3.30;80.40;;;;;;4970008;28;20085;-89
2023/11/24 12:50:12;;;;;;;14.05;3.90;;;3.40;80.40;;;;;;4940249;29;20039;-89
2023/11/24 12:52:44;;;;;;;12.27;3.35;;;3.40;80.30;;;;;;4939897;29;20051;-89
2023/11/24 12:55:12;;;;;;;4.63;0.93;;;3.60;80.30;;;;;;4939542;29;20058;-89
2023/11/24 12:57:43;;;;;;;42.15;10.52;;;3.70;79.80;;;;;;4955572;28;20074;-89
2023/11/24 13:00:14;;;;;;;33.83;8.27;;;3.90;79.70;;;;;;4955551;28;20043;-89
2023/11/24 13:02:44;;;;;;;57.22;15.50;;;3.90;79.30;;;;;;4955072;29;20159;-89
2023/11/24 13:05:12;;;;;;;42.97;13.18;;;4.00;79.20;;;;;;4939031;29;20130;-89